sensor_id;sensor_type;location;lat;lon;timestamp;pressure;altitude;pressure_sealevel;temperature;humidity
64679;BME280;51094;53.864;27.676;2023-02-02T00:01:38;97357.72;;;0.59;84.79
64679;BME280;51094;53.864;27.676;2023-02-02T00:04:06;97459.34;;;1.27;85.35
64679;BME280;51094;53.864;27.676;2023-02-02T00:06:33;97358.28;;;0.64;85.71
64679;BME280;51094;53.864;27.676;2023-02-02T00:09:01;97356.44;;;0.66;85.44
64679;BME280;51094;53.864;27.676;2023-02-02T00:11:28;97349.88;;;0.48;85.02
64679;BME280;51094;53.864;27.676;2023-02-02T00:13:55;97394.06;;;0.79;85.27
64679;BME280;51094;53.864;27.676;2023-02-02T00:19:02;97417.28;;;0.61;85.75
64679;BME280;51094;53.864;27.676;2023-02-02T00:21:29;97440.09;;;0.93;85.59
64679;BME280;51094;53.864;27.676;2023-02-02T00:23:56;97369.78;;;0.57;85.02
64679;BME280;51094;53.864;27.676;2023-02-02T00:26:24;97332.19;;;0.31;84.82
64679;BME280;51094;53.864;27.676;2023-02-02T00:28:51;97449.13;;;0.98;84.83
64679;BME280;51094;53.864;27.676;2023-02-02T00:31:18;97485.50;;;1.18;85.33
64679;BME280;51094;53.864;27.676;2023-02-02T00:33:46;97402.13;;;0.73;85.21
64679;BME280;51094;53.864;27.676;2023-02-02T00:36:13;97475.81;;;1.23;84.77
64679;BME280;51094;53.864;27.676;2023-02-02T00:38:40;97339.47;;;0.23;84.61
64679;BME280;51094;53.864;27.676;2023-02-02T00:41:07;97409.97;;;0.84;85.28
64679;BME280;51094;53.864;27.676;2023-02-02T00:43:34;97327.81;;;0.33;85.32
64679;BME280;51094;53.864;27.676;2023-02-02T00:46:01;97296.75;;;0.11;84.90
64679;BME280;51094;53.864;27.676;2023-02-02T00:48:28;97475.19;;;1.19;85.47
64679;BME280;51094;53.864;27.676;2023-02-02T00:50:55;97353.91;;;0.38;85.13
64679;BME280;51094;53.864;27.676;2023-02-02T00:53:21;97347.53;;;0.31;85.44
64679;BME280;51094;53.864;27.676;2023-02-02T00:55:48;97443.00;;;1.01;85.73
64679;BME280;51094;53.864;27.676;2023-02-02T00:58:15;97469.59;;;1.27;86.00
64679;BME280;51094;53.864;27.676;2023-02-02T01:00:42;97371.97;;;0.63;84.77
64679;BME280;51094;53.864;27.676;2023-02-02T01:03:09;97475.31;;;1.30;85.22
64679;BME280;51094;53.864;27.676;2023-02-02T01:05:36;97341.38;;;0.48;85.49
64679;BME280;51094;53.864;27.676;2023-02-02T01:08:02;97358.53;;;0.60;85.22
64679;BME280;51094;53.864;27.676;2023-02-02T01:10:29;97477.19;;;1.28;85.28
64679;BME280;51094;53.864;27.676;2023-02-02T01:12:56;97379.47;;;0.66;85.37
64679;BME280;51094;53.864;27.676;2023-02-02T01:15:23;97326.72;;;0.37;85.36
64679;BME280;51094;53.864;27.676;2023-02-02T01:17:50;97430.94;;;0.89;85.23
64679;BME280;51094;53.864;27.676;2023-02-02T01:20:18;97490.50;;;1.33;85.04
64679;BME280;51094;53.864;27.676;2023-02-02T01:22:46;97465.06;;;1.30;85.05
64679;BME280;51094;53.864;27.676;2023-02-02T01:25:13;97467.53;;;1.32;85.44
64679;BME280;51094;53.864;27.676;2023-02-02T01:27:39;97474.63;;;1.28;85.65
64679;BME280;51094;53.864;27.676;2023-02-02T01:30:09;97472.75;;;1.30;85.44
64679;BME280;51094;53.864;27.676;2023-02-02T01:32:36;97474.41;;;1.31;85.60
64679;BME280;51094;53.864;27.676;2023-02-02T01:35:02;97476.97;;;1.31;85.28
64679;BME280;51094;53.864;27.676;2023-02-02T01:37:29;97424.19;;;0.88;85.36
64679;BME280;51094;53.864;27.676;2023-02-02T01:39:56;97314.47;;;0.14;85.27
64679;BME280;51094;53.864;27.676;2023-02-02T01:42:22;97479.19;;;1.23;85.79
64679;BME280;51094;53.864;27.676;2023-02-02T01:47:32;97441.28;;;0.87;86.31
64679;BME280;51094;53.864;27.676;2023-02-02T01:50:00;97441.81;;;0.92;86.71
64679;BME280;51094;53.864;27.676;2023-02-02T01:52:28;97478.84;;;1.15;86.72
64679;BME280;51094;53.864;27.676;2023-02-02T01:55:00;97456.91;;;0.97;86.74
64679;BME280;51094;53.864;27.676;2023-02-02T01:57:35;97507.19;;;0.98;87.29
64679;BME280;51094;53.864;27.676;2023-02-02T02:00:09;97379.50;;;0.38;87.48
64679;BME280;51094;53.864;27.676;2023-02-02T02:02:41;97487.72;;;1.10;87.56
64679;BME280;51094;53.864;27.676;2023-02-02T02:05:10;97486.88;;;1.09;87.49
64679;BME280;51094;53.864;27.676;2023-02-02T02:07:43;97350.44;;;0.11;87.49
64679;BME280;51094;53.864;27.676;2023-02-02T02:10:11;97489.63;;;1.20;87.97
64679;BME280;51094;53.864;27.676;2023-02-02T02:12:38;96969.97;;;-2.03;87.42
64679;BME280;51094;53.864;27.676;2023-02-02T02:15:05;97466.22;;;1.12;87.64
64679;BME280;51094;53.864;27.676;2023-02-02T02:33:42;97510.53;;;1.41;87.96
64679;BME280;51094;53.864;27.676;2023-02-02T02:36:30;97514.44;;;1.47;87.50
64679;BME280;51094;53.864;27.676;2023-02-02T02:39:26;97444.66;;;1.02;87.09
64679;BME280;51094;53.864;27.676;2023-02-02T02:42:02;97483.22;;;0.99;87.32
64679;BME280;51094;53.864;27.676;2023-02-02T02:44:32;97486.97;;;1.08;87.44
64679;BME280;51094;53.864;27.676;2023-02-02T02:46:59;97313.69;;;-0.31;87.28
64679;BME280;51094;53.864;27.676;2023-02-02T02:49:26;97398.81;;;0.56;88.12
64679;BME280;51094;53.864;27.676;2023-02-02T02:51:55;97483.53;;;0.80;87.95
64679;BME280;51094;53.864;27.676;2023-02-02T02:54:33;97522.63;;;1.11;87.74
64679;BME280;51094;53.864;27.676;2023-02-02T03:00:11;97529.03;;;1.18;88.74
64679;BME280;51094;53.864;27.676;2023-02-02T03:08:30;97319.19;;;-0.23;88.72
64679;BME280;51094;53.864;27.676;2023-02-02T03:10:58;97488.91;;;0.90;88.88
64679;BME280;51094;53.864;27.676;2023-02-02T03:13:28;97534.97;;;1.18;88.88
64679;BME280;51094;53.864;27.676;2023-02-02T03:15:56;97540.09;;;1.18;88.90
64679;BME280;51094;53.864;27.676;2023-02-02T03:18:26;97539.53;;;1.13;89.12
64679;BME280;51094;53.864;27.676;2023-02-02T03:20:54;97534.06;;;1.05;89.59
64679;BME280;51094;53.864;27.676;2023-02-02T03:23:21;97384.56;;;-0.05;89.34
64679;BME280;51094;53.864;27.676;2023-02-02T03:25:47;97418.63;;;0.24;89.63
64679;BME280;51094;53.864;27.676;2023-02-02T03:28:15;97496.41;;;0.79;89.72
64679;BME280;51094;53.864;27.676;2023-02-02T03:30:43;97494.59;;;0.81;90.05
64679;BME280;51094;53.864;27.676;2023-02-02T03:33:12;97417.84;;;0.38;89.83
64679;BME280;51094;53.864;27.676;2023-02-02T03:35:39;97457.75;;;0.69;90.27
64679;BME280;51094;53.864;27.676;2023-02-02T03:38:06;97539.47;;;1.15;89.80
64679;BME280;51094;53.864;27.676;2023-02-02T03:40:33;97400.81;;;0.09;89.36
64679;BME280;51094;53.864;27.676;2023-02-02T03:43:00;97428.97;;;0.37;89.98
64679;BME280;51094;53.864;27.676;2023-02-02T03:45:27;97349.41;;;-0.15;89.55
64679;BME280;51094;53.864;27.676;2023-02-02T03:47:54;97399.00;;;0.25;89.65
64679;BME280;51094;53.864;27.676;2023-02-02T03:50:21;97549.50;;;1.18;89.57
64679;BME280;51094;53.864;27.676;2023-02-02T03:52:47;97502.16;;;0.82;89.72
64679;BME280;51094;53.864;27.676;2023-02-02T03:55:14;97554.34;;;1.08;89.75
64679;BME280;51094;53.864;27.676;2023-02-02T03:57:41;97551.88;;;1.07;90.03
64679;BME280;51094;53.864;27.676;2023-02-02T04:00:08;97380.72;;;-0.12;89.55
64679;BME280;51094;53.864;27.676;2023-02-02T04:02:38;97488.97;;;0.60;90.27
64679;BME280;51094;53.864;27.676;2023-02-02T04:05:05;97588.44;;;0.80;90.03
64679;BME280;51094;53.864;27.676;2023-02-02T04:07:32;97556.38;;;1.03;90.48
64679;BME280;51094;53.864;27.676;2023-02-02T04:09:59;97581.59;;;1.09;90.27
64679;BME280;51094;53.864;27.676;2023-02-02T04:12:26;97524.81;;;0.88;90.25
64679;BME280;51094;53.864;27.676;2023-02-02T04:14:52;97365.91;;;-0.21;89.82
64679;BME280;51094;53.864;27.676;2023-02-02T04:17:19;97524.72;;;0.90;89.92
64679;BME280;51094;53.864;27.676;2023-02-02T04:19:46;97567.34;;;1.19;89.52
64679;BME280;51094;53.864;27.676;2023-02-02T04:22:12;97567.91;;;1.24;90.04
64679;BME280;51094;53.864;27.676;2023-02-02T04:24:39;97489.91;;;0.73;89.73
64679;BME280;51094;53.864;27.676;2023-02-02T04:27:06;97383.28;;;0.17;89.47
64679;BME280;51094;53.864;27.676;2023-02-02T04:29:33;97439.28;;;0.50;89.58
64679;BME280;51094;53.864;27.676;2023-02-02T04:31:59;97412.16;;;0.19;89.49
64679;BME280;51094;53.864;27.676;2023-02-02T04:34:26;97392.59;;;0.18;89.06
64679;BME280;51094;53.864;27.676;2023-02-02T04:36:53;97530.75;;;1.03;88.63
64679;BME280;51094;53.864;27.676;2023-02-02T04:39:21;97375.44;;;0.06;88.96
64679;BME280;51094;53.864;27.676;2023-02-02T04:41:48;97575.66;;;1.23;89.10
64679;BME280;51094;53.864;27.676;2023-02-02T04:44:15;97579.88;;;1.24;89.21
64679;BME280;51094;53.864;27.676;2023-02-02T04:46:43;97508.47;;;0.77;89.04
64679;BME280;51094;53.864;27.676;2023-02-02T04:49:10;97583.63;;;1.18;88.79
64679;BME280;51094;53.864;27.676;2023-02-02T04:51:38;97592.78;;;1.22;89.33
64679;BME280;51094;53.864;27.676;2023-02-02T04:54:06;97514.94;;;0.68;88.84
64679;BME280;51094;53.864;27.676;2023-02-02T04:56:33;97351.22;;;-0.61;88.77
64679;BME280;51094;53.864;27.676;2023-02-02T04:59:00;97593.13;;;1.16;89.45
64679;BME280;51094;53.864;27.676;2023-02-02T05:01:26;97596.59;;;1.15;89.25
64679;BME280;51094;53.864;27.676;2023-02-02T05:03:55;97595.03;;;1.13;88.95
64679;BME280;51094;53.864;27.676;2023-02-02T05:06:21;97572.16;;;0.95;88.44
64679;BME280;51094;53.864;27.676;2023-02-02T05:08:48;97599.72;;;1.20;89.25
64679;BME280;51094;53.864;27.676;2023-02-02T05:11:17;97578.13;;;1.10;89.21
64679;BME280;51094;53.864;27.676;2023-02-02T05:13:46;97563.88;;;1.06;88.70
64679;BME280;51094;53.864;27.676;2023-02-02T05:16:14;97612.91;;;1.28;88.80
64679;BME280;51094;53.864;27.676;2023-02-02T05:18:41;97614.41;;;1.31;88.75
64679;BME280;51094;53.864;27.676;2023-02-02T05:21:08;97600.53;;;1.21;88.49
64679;BME280;51094;53.864;27.676;2023-02-02T05:23:35;97614.97;;;1.36;87.84
64679;BME280;51094;53.864;27.676;2023-02-02T05:26:02;97599.44;;;1.11;88.22
64679;BME280;51094;53.864;27.676;2023-02-02T05:28:29;97435.97;;;0.19;88.45
64679;BME280;51094;53.864;27.676;2023-02-02T05:30:56;97542.63;;;0.90;87.93
64679;BME280;51094;53.864;27.676;2023-02-02T05:33:23;97603.94;;;1.21;87.07
64679;BME280;51094;53.864;27.676;2023-02-02T05:35:50;97522.25;;;0.74;87.58
64679;BME280;51094;53.864;27.676;2023-02-02T05:38:18;97632.63;;;1.41;87.93
64679;BME280;51094;53.864;27.676;2023-02-02T05:40:47;97685.78;;;1.37;87.79
64679;BME280;51094;53.864;27.676;2023-02-02T05:43:14;97476.69;;;0.22;87.68
64679;BME280;51094;53.864;27.676;2023-02-02T05:45:41;97517.03;;;0.61;88.08
64679;BME280;51094;53.864;27.676;2023-02-02T05:48:11;97649.66;;;1.42;87.56
64679;BME280;51094;53.864;27.676;2023-02-02T05:50:43;97630.31;;;1.08;87.98
64679;BME280;51094;53.864;27.676;2023-02-02T05:53:12;97646.91;;;1.45;87.61
64679;BME280;51094;53.864;27.676;2023-02-02T05:55:39;97590.56;;;1.16;88.12
64679;BME280;51094;53.864;27.676;2023-02-02T05:58:06;97618.94;;;1.27;87.51
64679;BME280;51094;53.864;27.676;2023-02-02T06:00:33;97573.06;;;0.94;87.72
64679;BME280;51094;53.864;27.676;2023-02-02T06:03:00;97654.22;;;1.51;87.71
64679;BME280;51094;53.864;27.676;2023-02-02T06:05:27;97590.56;;;1.02;87.45
64679;BME280;51094;53.864;27.676;2023-02-02T06:07:54;97664.56;;;1.49;87.50
64679;BME280;51094;53.864;27.676;2023-02-02T06:10:20;97667.47;;;1.43;87.28
64679;BME280;51094;53.864;27.676;2023-02-02T06:12:47;97671.59;;;1.46;87.48
64679;BME280;51094;53.864;27.676;2023-02-02T06:15:14;97681.84;;;1.46;87.69
64679;BME280;51094;53.864;27.676;2023-02-02T06:17:41;97700.78;;;1.43;87.28
64679;BME280;51094;53.864;27.676;2023-02-02T06:20:08;97639.31;;;1.15;87.30
64679;BME280;51094;53.864;27.676;2023-02-02T06:22:35;97685.31;;;1.45;87.67
64679;BME280;51094;53.864;27.676;2023-02-02T06:25:03;97568.75;;;0.66;86.96
64679;BME280;51094;53.864;27.676;2023-02-02T06:27:31;97613.47;;;0.89;87.58
64679;BME280;51094;53.864;27.676;2023-02-02T06:29:57;97688.59;;;1.32;88.15
64679;BME280;51094;53.864;27.676;2023-02-02T06:32:24;97678.91;;;1.38;87.82
64679;BME280;51094;53.864;27.676;2023-02-02T06:34:53;97612.84;;;1.00;88.03
64679;BME280;51094;53.864;27.676;2023-02-02T06:37:20;97697.31;;;1.44;87.41
64679;BME280;51094;53.864;27.676;2023-02-02T06:39:47;97601.50;;;0.90;87.00
64679;BME280;51094;53.864;27.676;2023-02-02T06:42:13;97562.00;;;0.65;87.60
64679;BME280;51094;53.864;27.676;2023-02-02T06:44:47;97689.72;;;1.57;87.65
64679;BME280;51094;53.864;27.676;2023-02-02T06:47:14;97629.13;;;0.99;87.04
64679;BME280;51094;53.864;27.676;2023-02-02T06:49:41;97625.38;;;1.05;87.19
64679;BME280;51094;53.864;27.676;2023-02-02T06:52:07;97695.84;;;1.54;87.08
64679;BME280;51094;53.864;27.676;2023-02-02T06:54:34;97462.53;;;0.17;87.26
64679;BME280;51094;53.864;27.676;2023-02-02T06:57:01;97599.75;;;0.90;87.19
64679;BME280;51094;53.864;27.676;2023-02-02T06:59:28;97707.47;;;1.60;86.51
64679;BME280;51094;53.864;27.676;2023-02-02T07:01:54;97710.03;;;1.60;87.03
64679;BME280;51094;53.864;27.676;2023-02-02T07:04:21;97640.03;;;1.17;87.25
64679;BME280;51094;53.864;27.676;2023-02-02T07:06:48;97418.22;;;-0.12;86.74
64679;BME280;51094;53.864;27.676;2023-02-02T07:09:15;97699.72;;;1.61;87.39
64679;BME280;51094;53.864;27.676;2023-02-02T07:11:43;97630.84;;;0.98;86.98
64679;BME280;51094;53.864;27.676;2023-02-02T07:14:12;97725.88;;;1.66;86.84
64679;BME280;51094;53.864;27.676;2023-02-02T07:16:38;97719.03;;;1.67;87.02
64679;BME280;51094;53.864;27.676;2023-02-02T07:19:05;97654.94;;;1.39;87.03
64679;BME280;51094;53.864;27.676;2023-02-02T07:21:32;97714.06;;;1.78;87.43
64679;BME280;51094;53.864;27.676;2023-02-02T07:24:03;97634.53;;;1.37;86.88
64679;BME280;51094;53.864;27.676;2023-02-02T07:26:30;97685.81;;;1.65;86.92
64679;BME280;51094;53.864;27.676;2023-02-02T07:28:57;97685.91;;;1.64;86.59
64679;BME280;51094;53.864;27.676;2023-02-02T07:31:25;97766.22;;;1.77;86.54
64679;BME280;51094;53.864;27.676;2023-02-02T07:33:52;97731.25;;;1.76;86.52
64679;BME280;51094;53.864;27.676;2023-02-02T07:36:22;97729.72;;;1.74;86.46
64679;BME280;51094;53.864;27.676;2023-02-02T07:38:51;97733.09;;;1.74;86.16
64679;BME280;51094;53.864;27.676;2023-02-02T07:41:26;97732.19;;;1.61;85.81
64679;BME280;51094;53.864;27.676;2023-02-02T07:43:56;97661.13;;;1.06;86.28
64679;BME280;51094;53.864;27.676;2023-02-02T07:46:23;97693.53;;;1.36;85.97
64679;BME280;51094;53.864;27.676;2023-02-02T07:48:53;97588.25;;;0.53;86.43
64679;BME280;51094;53.864;27.676;2023-02-02T07:51:21;97699.22;;;1.41;86.07
64679;BME280;51094;53.864;27.676;2023-02-02T07:53:50;97714.22;;;1.47;85.65
64679;BME280;51094;53.864;27.676;2023-02-02T07:56:20;97673.41;;;1.15;85.80
64679;BME280;51094;53.864;27.676;2023-02-02T07:58:47;97749.03;;;1.65;86.18
64679;BME280;51094;53.864;27.676;2023-02-02T08:01:15;97756.16;;;1.74;86.60
64679;BME280;51094;53.864;27.676;2023-02-02T08:03:42;97709.03;;;1.48;85.84
64679;BME280;51094;53.864;27.676;2023-02-02T08:06:12;97750.13;;;1.75;85.92
64679;BME280;51094;53.864;27.676;2023-02-02T08:08:39;97753.72;;;1.73;85.65
64679;BME280;51094;53.864;27.676;2023-02-02T08:11:08;97643.56;;;1.00;85.43
64679;BME280;51094;53.864;27.676;2023-02-02T08:13:35;97711.47;;;1.36;84.84
64679;BME280;51094;53.864;27.676;2023-02-02T08:16:02;97487.75;;;-0.07;85.35
64679;BME280;51094;53.864;27.676;2023-02-02T08:18:30;97769.88;;;1.59;84.70
64679;BME280;51094;53.864;27.676;2023-02-02T08:20:57;97756.34;;;1.57;84.80
64679;BME280;51094;53.864;27.676;2023-02-02T08:23:24;97734.91;;;1.44;84.88
64679;BME280;51094;53.864;27.676;2023-02-02T08:25:52;97771.16;;;1.52;84.60
64679;BME280;51094;53.864;27.676;2023-02-02T08:28:19;97623.06;;;0.56;85.19
64679;BME280;51094;53.864;27.676;2023-02-02T08:30:46;97774.06;;;1.46;85.08
64679;BME280;51094;53.864;27.676;2023-02-02T08:33:13;97629.34;;;0.50;85.55
64679;BME280;51094;53.864;27.676;2023-02-02T08:35:41;97742.84;;;1.39;84.79
64679;BME280;51094;53.864;27.676;2023-02-02T08:38:09;97724.00;;;1.26;84.78
64679;BME280;51094;53.864;27.676;2023-02-02T08:40:35;97650.19;;;0.88;83.85
64679;BME280;51094;53.864;27.676;2023-02-02T08:43:03;97788.28;;;1.80;84.29
64679;BME280;51094;53.864;27.676;2023-02-02T08:45:30;97780.16;;;1.87;84.93
64679;BME280;51094;53.864;27.676;2023-02-02T08:48:17;97750.69;;;1.66;84.20
64679;BME280;51094;53.864;27.676;2023-02-02T08:50:51;97786.13;;;2.16;85.00
64679;BME280;51094;53.864;27.676;2023-02-02T08:53:18;97782.34;;;2.22;84.18
64679;BME280;51094;53.864;27.676;2023-02-02T08:55:45;97749.22;;;2.05;83.66
64679;BME280;51094;53.864;27.676;2023-02-02T08:58:11;97729.06;;;1.84;82.24
64679;BME280;51094;53.864;27.676;2023-02-02T09:00:39;97788.97;;;2.12;83.06
64679;BME280;51094;53.864;27.676;2023-02-02T09:03:05;97790.03;;;2.22;83.75
64679;BME280;51094;53.864;27.676;2023-02-02T09:05:34;97850.13;;;2.18;82.79
64679;BME280;51094;53.864;27.676;2023-02-02T09:08:01;97803.78;;;2.21;82.54
64679;BME280;51094;53.864;27.676;2023-02-02T09:10:28;97793.53;;;2.07;82.35
64679;BME280;51094;53.864;27.676;2023-02-02T09:12:57;97730.28;;;1.64;83.05
64679;BME280;51094;53.864;27.676;2023-02-02T09:15:24;97803.72;;;2.08;82.49
64679;BME280;51094;53.864;27.676;2023-02-02T09:17:51;97803.97;;;2.18;82.82
64679;BME280;51094;53.864;27.676;2023-02-02T09:20:18;97801.53;;;2.16;82.40
64679;BME280;51094;53.864;27.676;2023-02-02T09:22:47;97708.47;;;1.43;81.85
64679;BME280;51094;53.864;27.676;2023-02-02T09:25:14;97731.44;;;1.45;82.35
64679;BME280;51094;53.864;27.676;2023-02-02T09:27:41;97809.25;;;1.86;82.73
64679;BME280;51094;53.864;27.676;2023-02-02T09:30:08;97630.94;;;0.83;82.77
64679;BME280;51094;53.864;27.676;2023-02-02T09:32:35;97655.28;;;1.04;82.75
64679;BME280;51094;53.864;27.676;2023-02-02T09:35:02;97810.94;;;2.02;83.03
64679;BME280;51094;53.864;27.676;2023-02-02T09:37:32;97660.81;;;1.26;83.13
64679;BME280;51094;53.864;27.676;2023-02-02T09:39:59;97714.63;;;1.55;82.56
64679;BME280;51094;53.864;27.676;2023-02-02T09:45:05;97825.50;;;2.29;82.42
64679;BME280;51094;53.864;27.676;2023-02-02T09:47:51;97749.03;;;1.65;82.11
64679;BME280;51094;53.864;27.676;2023-02-02T09:53:05;97820.28;;;2.31;81.66
64679;BME280;51094;53.864;27.676;2023-02-02T09:55:39;97855.81;;;2.37;82.41
64679;BME280;51094;53.864;27.676;2023-02-02T10:00:47;97863.59;;;2.21;81.95
64679;BME280;51094;53.864;27.676;2023-02-02T10:03:21;97722.47;;;1.80;81.78
64679;BME280;51094;53.864;27.676;2023-02-02T10:06:10;97820.13;;;2.75;82.31
64679;BME280;51094;53.864;27.676;2023-02-02T10:08:43;97854.47;;;3.01;80.78
64679;BME280;51094;53.864;27.676;2023-02-02T10:11:29;97516.69;;;1.10;79.87
64679;BME280;51094;53.864;27.676;2023-02-02T10:14:07;97524.00;;;1.16;79.93
64679;BME280;51094;53.864;27.676;2023-02-02T10:16:38;97718.56;;;2.03;79.24
64679;BME280;51094;53.864;27.676;2023-02-02T10:19:10;97747.16;;;2.38;79.43
64679;BME280;51094;53.864;27.676;2023-02-02T10:22:11;97819.38;;;2.87;79.46
64679;BME280;51094;53.864;27.676;2023-02-02T10:24:40;97750.28;;;2.29;79.14
64679;BME280;51094;53.864;27.676;2023-02-02T10:27:15;97554.06;;;0.98;79.75
64679;BME280;51094;53.864;27.676;2023-02-02T10:30:00;97818.16;;;2.52;79.30
64679;BME280;51094;53.864;27.676;2023-02-02T10:32:34;97501.38;;;0.38;79.66
64679;BME280;51094;53.864;27.676;2023-02-02T10:38:29;97823.03;;;2.56;79.97
64679;BME280;51094;53.864;27.676;2023-02-02T10:41:24;97821.50;;;2.66;79.60
64679;BME280;51094;53.864;27.676;2023-02-02T10:47:05;97868.25;;;2.72;79.57
64679;BME280;51094;53.864;27.676;2023-02-02T10:49:39;97802.31;;;2.31;79.30
64679;BME280;51094;53.864;27.676;2023-02-02T10:54:50;97837.81;;;2.80;78.07
64679;BME280;51094;53.864;27.676;2023-02-02T11:02:53;97845.34;;;2.83;77.53
64679;BME280;51094;53.864;27.676;2023-02-02T11:05:27;97655.31;;;1.32;77.74
64679;BME280;51094;53.864;27.676;2023-02-02T11:08:34;97790.03;;;2.50;78.15
64679;BME280;51094;53.864;27.676;2023-02-02T11:13:48;97594.78;;;1.17;77.33
64679;BME280;51094;53.864;27.676;2023-02-02T11:16:19;97707.66;;;2.14;76.51
64679;BME280;51094;53.864;27.676;2023-02-02T11:18:47;97851.66;;;2.91;76.77
64679;BME280;51094;53.864;27.676;2023-02-02T11:21:18;97838.34;;;2.85;76.97
64679;BME280;51094;53.864;27.676;2023-02-02T11:26:23;97681.47;;;1.80;76.93
64679;BME280;51094;53.864;27.676;2023-02-02T11:28:52;97741.06;;;2.12;77.10
64679;BME280;51094;53.864;27.676;2023-02-02T11:31:31;97844.78;;;2.63;76.89
64679;BME280;51094;53.864;27.676;2023-02-02T11:34:27;97850.25;;;2.45;78.35
64679;BME280;51094;53.864;27.676;2023-02-02T11:37:01;97857.25;;;2.70;78.64
64679;BME280;51094;53.864;27.676;2023-02-02T11:39:28;97880.72;;;2.78;78.14
64679;BME280;51094;53.864;27.676;2023-02-02T11:42:16;97729.81;;;1.86;78.30
64679;BME280;51094;53.864;27.676;2023-02-02T11:44:50;97853.97;;;2.67;78.66
64679;BME280;51094;53.864;27.676;2023-02-02T11:47:20;97787.94;;;2.28;79.34
64679;BME280;51094;53.864;27.676;2023-02-02T11:49:50;97859.09;;;2.67;78.84
64679;BME280;51094;53.864;27.676;2023-02-02T11:52:21;97835.75;;;2.44;78.45
64679;BME280;51094;53.864;27.676;2023-02-02T11:54:51;97862.44;;;2.55;78.56
64679;BME280;51094;53.864;27.676;2023-02-02T11:57:20;97871.13;;;2.53;78.55
64679;BME280;51094;53.864;27.676;2023-02-02T12:00:05;97850.88;;;2.34;78.72
64679;BME280;51094;53.864;27.676;2023-02-02T12:02:33;97881.84;;;2.45;79.32
64679;BME280;51094;53.864;27.676;2023-02-02T12:07:35;97855.72;;;2.24;79.17
64679;BME280;51094;53.864;27.676;2023-02-02T12:10:13;97839.25;;;2.14;78.90
64679;BME280;51094;53.864;27.676;2023-02-02T12:15:34;97863.69;;;2.34;79.46
64679;BME280;51094;53.864;27.676;2023-02-02T12:21:00;97875.06;;;2.44;78.97
64679;BME280;51094;53.864;27.676;2023-02-02T12:23:42;97843.72;;;1.96;78.90
64679;BME280;51094;53.864;27.676;2023-02-02T12:26:29;97885.25;;;2.46;78.89
64679;BME280;51094;53.864;27.676;2023-02-02T12:29:24;97886.81;;;2.48;78.38
64679;BME280;51094;53.864;27.676;2023-02-02T12:32:10;97890.09;;;2.50;78.30
64679;BME280;51094;53.864;27.676;2023-02-02T12:40:28;97756.91;;;1.76;78.28
64679;BME280;51094;53.864;27.676;2023-02-02T12:54:15;97901.25;;;2.78;77.18
64679;BME280;51094;53.864;27.676;2023-02-02T12:57:21;97882.94;;;2.70;76.96
64679;BME280;51094;53.864;27.676;2023-02-02T13:06:38;97855.19;;;2.48;77.02
64679;BME280;51094;53.864;27.676;2023-02-02T13:09:23;97889.81;;;2.69;77.71
64679;BME280;51094;53.864;27.676;2023-02-02T13:12:04;97894.13;;;2.54;77.18
64679;BME280;51094;53.864;27.676;2023-02-02T13:17:04;97842.78;;;1.97;77.86
64679;BME280;51094;53.864;27.676;2023-02-02T13:19:43;97919.59;;;2.43;78.36
64679;BME280;51094;53.864;27.676;2023-02-02T13:22:23;97926.56;;;2.41;78.49
64679;BME280;51094;53.864;27.676;2023-02-02T13:24:54;97918.22;;;2.38;78.27
64679;BME280;51094;53.864;27.676;2023-02-02T13:27:25;97893.84;;;2.16;78.41
64679;BME280;51094;53.864;27.676;2023-02-02T13:30:02;97922.69;;;2.34;79.20
64679;BME280;51094;53.864;27.676;2023-02-02T13:32:39;97925.34;;;2.32;79.39
64679;BME280;51094;53.864;27.676;2023-02-02T13:35:20;97926.13;;;2.49;79.08
64679;BME280;51094;53.864;27.676;2023-02-02T13:40:25;97930.59;;;2.45;79.44
64679;BME280;51094;53.864;27.676;2023-02-02T13:48:25;97958.22;;;2.26;79.26
64679;BME280;51094;53.864;27.676;2023-02-02T13:53:55;97945.75;;;2.20;80.51
64679;BME280;51094;53.864;27.676;2023-02-02T14:01:34;97833.53;;;1.51;80.80
64679;BME280;51094;53.864;27.676;2023-02-02T14:04:01;97958.03;;;2.15;81.09
64679;BME280;51094;53.864;27.676;2023-02-02T14:06:50;97961.22;;;2.18;81.15
64679;BME280;51094;53.864;27.676;2023-02-02T14:09:19;97865.69;;;1.56;80.89
64679;BME280;51094;53.864;27.676;2023-02-02T14:11:55;97960.59;;;2.15;81.65
64679;BME280;51094;53.864;27.676;2023-02-02T14:14:23;97960.13;;;2.22;81.27
64679;BME280;51094;53.864;27.676;2023-02-02T14:17:49;97962.25;;;2.16;81.09
64679;BME280;51094;53.864;27.676;2023-02-02T14:19:55;97878.97;;;1.63;81.18
64679;BME280;51094;53.864;27.676;2023-02-02T14:22:39;97867.94;;;1.47;81.61
64679;BME280;51094;53.864;27.676;2023-02-02T14:28:10;97942.72;;;1.83;81.70
64679;BME280;51094;53.864;27.676;2023-02-02T14:30:40;97972.13;;;2.08;81.60
64679;BME280;51094;53.864;27.676;2023-02-02T14:41:29;97894.38;;;1.31;82.21
64679;BME280;51094;53.864;27.676;2023-02-02T14:44:16;97979.53;;;1.82;81.86
64679;BME280;51094;53.864;27.676;2023-02-02T14:46:43;97879.38;;;1.10;81.98
64679;BME280;51094;53.864;27.676;2023-02-02T14:49:23;97968.78;;;1.76;82.67
64679;BME280;51094;53.864;27.676;2023-02-02T14:51:54;97909.16;;;1.42;82.51
64679;BME280;51094;53.864;27.676;2023-02-02T14:54:24;97936.09;;;1.65;82.19
64679;BME280;51094;53.864;27.676;2023-02-02T14:56:55;98014.22;;;2.04;82.03
64679;BME280;51094;53.864;27.676;2023-02-02T14:59:28;97925.94;;;1.48;81.57
64679;BME280;51094;53.864;27.676;2023-02-02T15:04:42;97904.75;;;1.30;81.68
64679;BME280;51094;53.864;27.676;2023-02-02T15:09:53;98023.00;;;1.99;82.86
64679;BME280;51094;53.864;27.676;2023-02-02T15:15:22;98004.56;;;1.77;82.42
64679;BME280;51094;53.864;27.676;2023-02-02T15:18:03;98020.78;;;1.78;82.46
64679;BME280;51094;53.864;27.676;2023-02-02T15:20:42;98016.69;;;1.59;82.18
64679;BME280;51094;53.864;27.676;2023-02-02T15:25:58;98029.88;;;1.83;82.06
64679;BME280;51094;53.864;27.676;2023-02-02T15:28:58;98038.63;;;1.79;82.43